Time;durP1;ratioP1;P1;durP2;ratioP2;P2;SDS_P1;SDS_P2;PMS_P1;PMS_P2;Temp;Humidity;BMP_temperature;BMP_pressure;BME280_temperature;BME280_humidity;BME280_pressure;Samples;Min_cycle;Max_cycle;Signal;HPM_P1;HPM_P2
2023/04/17 00:00:42;;;;;;;14.02;12.90;;;;;;;8.45;100.00;99120.41;4161295;28;20272;-49
2023/04/17 00:02:43;;;;;;;12.65;11.65;;;;;;;8.53;100.00;99118.22;4178015;28;20207;-50
2023/04/17 00:04:46;;;;;;;12.15;11.25;;;;;;;8.47;100.00;99123.72;4172710;28;20254;-50
2023/04/17 00:06:48;;;;;;;12.50;11.40;;;;;;;8.52;100.00;99123.91;4177188;28;20221;-50
2023/04/17 00:08:50;;;;;;;12.23;11.27;;;;;;;8.48;100.00;99130.88;4172387;28;20266;-49
2023/04/17 00:10:51;;;;;;;12.05;11.05;;;;;;;8.50;100.00;99124.13;4171897;28;21113;-51
2023/04/17 00:13:07;;;;;;;11.10;10.30;;;;;;;8.51;100.00;99116.78;4170208;28;20210;-49
2023/04/17 00:15:10;;;;;;;12.10;11.10;;;;;;;8.51;100.00;99119.50;4174139;28;20587;-50
2023/04/17 00:17:11;;;;;;;12.98;11.85;;;;;;;8.53;100.00;99128.28;4154785;28;20239;-49
2023/04/17 00:19:13;;;;;;;11.05;10.07;;;;;;;8.53;100.00;99117.38;4160917;28;20229;-49
2023/04/17 00:21:15;;;;;;;12.05;10.88;;;;;;;8.53;100.00;99122.84;4202365;28;20294;-50
2023/04/17 00:23:16;;;;;;;12.55;11.55;;;;;;;8.53;100.00;99112.78;4173451;28;20681;-49
2023/04/17 00:25:18;;;;;;;11.75;10.75;;;;;;;8.56;100.00;99117.78;4169858;28;20212;-51
2023/04/17 00:27:20;;;;;;;11.35;10.55;;;;;;;8.61;100.00;99119.88;4157920;28;20311;-49
2023/04/17 00:29:22;;;;;;;22.40;12.77;;;;;;;8.59;100.00;99113.78;4177661;28;20780;-49
2023/04/17 00:31:23;;;;;;;12.02;11.13;;;;;;;8.59;100.00;99113.78;4171313;28;20209;-51
2023/04/17 00:33:25;;;;;;;11.65;10.65;;;;;;;8.58;100.00;99114.84;4176458;28;20212;-49
2023/04/17 00:35:27;;;;;;;11.38;10.48;;;;;;;8.55;100.00;99110.66;4170787;28;20203;-50
2023/04/17 00:37:28;;;;;;;12.52;11.52;;;;;;;8.61;100.00;99108.94;4173809;28;20256;-49
2023/04/17 00:39:30;;;;;;;12.38;11.35;;;;;;;8.56;100.00;99116.97;4167022;28;20352;-49
2023/04/17 00:41:32;;;;;;;12.18;11.18;;;;;;;8.62;100.00;99111.44;4171775;28;20208;-50
2023/04/17 00:43:34;;;;;;;11.45;10.55;;;;;;;8.60;100.00;99119.00;4172340;28;20226;-50
2023/04/17 00:45:35;;;;;;;11.43;10.52;;;;;;;8.56;100.00;99111.50;4173831;28;20296;-49
2023/04/17 00:47:37;;;;;;;11.30;10.35;;;;;;;8.63;100.00;99112.28;4201883;28;20242;-50
2023/04/17 00:49:39;;;;;;;12.23;11.32;;;;;;;8.58;100.00;99109.38;4167845;28;20215;-50
2023/04/17 00:51:41;;;;;;;11.63;10.68;;;;;;;8.63;100.00;99106.81;4168790;28;20709;-50
2023/04/17 00:53:43;;;;;;;12.75;11.65;;;;;;;8.57;100.00;99108.56;4168639;28;20294;-49
2023/04/17 00:55:47;;;;;;;12.18;11.18;;;;;;;8.62;100.00;99105.97;4202992;28;20811;-50
2023/04/17 00:57:49;;;;;;;10.98;10.07;;;;;;;8.55;100.00;99107.94;4169859;28;20754;-50
2023/04/17 00:59:51;;;;;;;10.32;9.52;;;;;;;8.57;100.00;99107.72;4163263;28;20218;-48
2023/04/17 01:01:53;;;;;;;10.95;10.15;;;;;;;8.56;100.00;99103.31;4174787;28;20731;-49
2023/04/17 01:03:55;;;;;;;10.85;9.95;;;;;;;8.56;100.00;99106.03;4160141;28;20728;-49
2023/04/17 01:05:57;;;;;;;11.30;10.40;;;;;;;8.57;100.00;99107.72;4192408;28;20245;-50
2023/04/17 01:07:59;;;;;;;10.85;10.05;;;;;;;8.57;100.00;99103.09;4167918;28;20282;-49
2023/04/17 01:10:02;;;;;;;11.77;10.77;;;;;;;8.57;100.00;99102.25;4156419;28;20220;-49
2023/04/17 01:12:20;;;;;;;12.75;11.68;;;;;;;8.56;100.00;99100.59;4168603;28;20244;-49
2023/04/17 01:14:21;;;;;;;11.50;10.60;;;;;;;8.58;100.00;99103.91;4168684;28;20207;-49
2023/04/17 01:16:23;;;;;;;10.75;9.95;;;;;;;8.62;100.00;99105.16;4169212;28;20292;-50
2023/04/17 01:18:25;;;;;;;11.77;10.85;;;;;;;8.59;100.00;99098.25;4171554;28;20232;-49
2023/04/17 01:20:28;;;;;;;11.60;10.60;;;;;;;8.57;100.00;99096.81;4159621;28;20251;-50
2023/04/17 01:22:30;;;;;;;12.55;11.35;;;;;;;8.57;100.00;99094.94;4166165;28;20237;-50
2023/04/17 01:24:32;;;;;;;11.23;10.32;;;;;;;8.63;100.00;99095.91;4168834;28;20204;-49
2023/04/17 01:26:34;;;;;;;11.48;10.63;;;;;;;8.59;100.00;99094.69;4201316;28;20237;-50
2023/04/17 01:28:36;;;;;;;12.50;10.40;;;;;;;8.57;100.00;99096.81;4185313;28;20255;-49
2023/04/17 01:30:37;;;;;;;12.25;11.25;;;;;;;8.57;100.00;99094.94;4169581;28;20912;-50
2023/04/17 01:32:40;;;;;;;14.07;12.85;;;;;;;8.57;100.00;99096.81;4176101;28;20699;-49
2023/04/17 01:34:42;;;;;;;13.70;12.52;;;;;;;8.60;100.00;99093.63;4170015;28;20243;-50
2023/04/17 01:36:44;;;;;;;14.10;12.80;;;;;;;8.60;100.00;99090.88;4171153;28;20207;-50
2023/04/17 01:38:45;;;;;;;12.63;11.63;;;;;;;8.55;100.00;99093.47;4172442;28;20257;-50
2023/04/17 01:40:47;;;;;;;11.82;10.93;;;;;;;8.58;100.00;99093.00;4160364;28;20308;-48
2023/04/17 01:42:49;;;;;;;15.35;14.15;;;;;;;8.55;100.00;99090.75;4155604;28;20216;-49
2023/04/17 01:44:51;;;;;;;14.32;13.23;;;;;;;8.55;100.00;99098.94;4167629;28;20252;-49
2023/04/17 01:46:53;;;;;;;13.57;12.45;;;;;;;8.58;100.00;99093.00;4166417;28;20271;-48
2023/04/17 01:48:54;;;;;;;14.45;13.27;;;;;;;8.55;100.00;99088.84;4156396;28;20634;-49
2023/04/17 01:50:59;;;;;;;13.10;12.00;;;;;;;8.58;100.00;99098.47;4190041;28;20199;-49
2023/04/17 01:53:01;;;;;;;11.07;10.23;;;;;;;8.57;100.00;99097.66;4177021;28;20294;-49
2023/04/17 01:55:03;;;;;;;13.98;12.82;;;;;;;8.58;100.00;99093.00;4171321;28;20212;-49
2023/04/17 01:57:05;;;;;;;12.38;11.48;;;;;;;8.55;100.00;99098.94;4182775;28;20238;-50
2023/04/17 01:59:07;;;;;;;12.82;11.82;;;;;;;8.56;100.00;99089.69;4191782;28;20286;-49
2023/04/17 02:01:08;;;;;;;17.25;11.15;;;;;;;8.53;100.00;99090.09;4185324;28;20204;-51
2023/04/17 02:03:10;;;;;;;12.50;11.48;;;;;;;8.55;100.00;99093.47;4160176;28;20728;-50
2023/04/17 02:05:12;;;;;;;13.52;12.18;;;;;;;8.58;100.00;99087.56;4170817;28;20770;-50
2023/04/17 02:07:15;;;;;;;13.20;12.20;;;;;;;8.61;100.00;99092.59;4165633;28;20749;-50
2023/04/17 02:09:16;;;;;;;12.07;11.18;;;;;;;8.56;100.00;99090.50;4176464;28;20204;-49
2023/04/17 02:11:18;;;;;;;12.65;11.65;;;;;;;8.56;100.00;99089.69;4176969;28;20208;-51
2023/04/17 02:13:20;;;;;;;13.38;12.23;;;;;;;8.56;100.00;99095.13;4179098;28;20220;-49
2023/04/17 02:15:22;;;;;;;13.60;12.50;;;;;;;8.53;100.00;99095.56;4171302;28;20240;-51
2023/04/17 02:17:23;;;;;;;12.13;11.20;;;;;;;8.54;100.00;99089.09;4175170;28;20262;-50
2023/04/17 02:19:25;;;;;;;14.25;13.15;;;;;;;8.57;100.00;99091.34;4175459;28;20208;-49
2023/04/17 02:21:27;;;;;;;12.52;11.45;;;;;;;8.60;100.00;99090.88;4163459;28;20207;-49
2023/04/17 02:23:29;;;;;;;12.40;11.40;;;;;;;8.54;100.00;99091.81;4179364;28;20658;-50
2023/04/17 02:25:31;;;;;;;12.13;11.23;;;;;;;8.55;100.00;99098.94;4173190;28;20235;-51
2023/04/17 02:27:32;;;;;;;13.07;12.07;;;;;;;8.48;100.00;99095.44;4185163;28;20231;-49
2023/04/17 02:29:35;;;;;;;12.45;11.55;;;;;;;8.54;100.00;99098.09;4173078;28;20672;-49
2023/04/17 02:31:40;;;;;;;12.32;11.23;;;;;;;8.54;100.00;99098.09;4171299;28;20724;-50
2023/04/17 02:33:41;;;;;;;13.15;12.13;;;;;;;8.53;100.00;99093.69;4180314;28;20224;-50
2023/04/17 02:35:43;;;;;;;14.48;13.27;;;;;;;8.48;100.00;99093.50;4179162;28;20232;-50
2023/04/17 02:37:45;;;;;;;13.05;12.13;;;;;;;8.53;100.00;99095.56;4171841;28;20736;-51
2023/04/17 02:39:47;;;;;;;13.40;12.20;;;;;;;8.53;100.00;99098.28;4171444;28;20255;-51
2023/04/17 02:41:49;;;;;;;14.07;12.82;;;;;;;8.50;100.00;99101.47;4172888;28;20238;-51
2023/04/17 02:43:50;;;;;;;12.05;11.05;;;;;;;8.56;100.00;99097.88;4186968;28;20208;-51
2023/04/17 02:45:52;;;;;;;13.60;12.70;;;;;;;8.57;100.00;99092.19;4172579;28;20208;-50
2023/04/17 02:47:54;;;;;;;14.18;12.98;;;;;;;8.57;100.00;99107.72;4172511;28;20613;-50
2023/04/17 02:49:58;;;;;;;14.13;13.02;;;;;;;8.45;100.00;99096.69;4158332;28;20641;-51
2023/04/17 02:52:00;;;;;;;12.20;11.23;;;;;;;8.41;100.00;99102.81;4179126;28;20208;-50
2023/04/17 02:54:02;;;;;;;13.98;12.93;;;;;;;8.37;100.00;99098.84;4179002;28;20239;-50
2023/04/17 02:56:04;;;;;;;14.93;13.75;;;;;;;8.39;100.00;99099.47;4179593;28;20208;-50
2023/04/17 02:58:06;;;;;;;14.50;13.02;;;;;;;8.39;100.00;99096.72;4185272;28;20270;-49
2023/04/17 03:00:12;;;;;;;15.43;14.20;;;;;;;8.36;100.00;99100.75;4171177;28;20279;-49
2023/04/17 03:02:14;;;;;;;13.85;12.75;;;;;;;8.37;100.00;99096.13;4178800;28;20208;-49
2023/04/17 03:04:16;;;;;;;13.82;12.70;;;;;;;8.37;100.00;99098.84;4161492;28;20213;-49
2023/04/17 03:06:18;;;;;;;14.13;12.95;;;;;;;8.39;100.00;99099.47;4178846;28;20200;-49
2023/04/17 03:08:19;;;;;;;12.82;11.82;;;;;;;8.37;100.00;99107.03;4203168;28;20596;-49
2023/04/17 03:10:21;;;;;;;14.23;13.15;;;;;;;8.43;100.00;99101.53;4172831;28;20248;-50
2023/04/17 03:12:24;;;;;;;13.20;12.27;;;;;;;8.41;100.00;99103.63;4154907;28;20204;-50
2023/04/17 03:14:25;;;;;;;14.40;13.23;;;;;;;8.42;100.00;99099.03;4168001;28;20622;-49
2023/04/17 03:16:27;;;;;;;16.13;13.20;;;;;;;8.42;100.00;99093.59;4173471;28;20300;-49
2023/04/17 03:18:29;;;;;;;22.80;13.43;;;;;;;8.41;100.00;99095.47;4172350;28;20227;-50
2023/04/17 03:20:31;;;;;;;13.23;12.20;;;;;;;8.41;100.00;99098.19;4178868;28;20326;-49
2023/04/17 03:22:33;;;;;;;15.25;14.07;;;;;;;8.37;100.00;99101.59;4166530;28;20219;-50
2023/04/17 03:24:35;;;;;;;14.85;13.40;;;;;;;8.41;100.00;99105.56;4170793;28;20204;-50
2023/04/17 03:26:37;;;;;;;12.88;11.82;;;;;;;8.43;100.00;99100.69;4178096;28;20231;-50
2023/04/17 03:28:38;;;;;;;15.10;13.90;;;;;;;8.40;100.00;99101.97;4161202;28;20343;-50
2023/04/17 03:30:43;;;;;;;13.65;12.55;;;;;;;8.38;100.00;99108.69;4170548;28;20288;-50
2023/04/17 03:32:45;;;;;;;13.73;12.40;;;;;;;8.37;100.00;99107.88;4161972;28;20241;-49
2023/04/17 03:34:47;;;;;;;12.90;11.77;;;;;;;8.36;100.00;99100.75;4162646;28;20690;-49
2023/04/17 03:36:48;;;;;;;13.50;12.40;;;;;;;8.39;100.00;99099.47;4173160;28;20706;-50
2023/04/17 03:38:50;;;;;;;13.57;12.50;;;;;;;8.44;100.00;99102.38;4155569;28;20718;-49
2023/04/17 03:40:52;;;;;;;14.02;12.82;;;;;;;8.41;100.00;99105.56;4170531;28;20291;-50
2023/04/17 03:42:54;;;;;;;14.48;13.30;;;;;;;8.44;100.00;99102.38;4169661;28;20237;-49
2023/04/17 03:44:55;;;;;;;13.95;12.82;;;;;;;8.43;100.00;99108.88;4170285;28;20239;-48
2023/04/17 03:46:57;;;;;;;13.32;12.23;;;;;;;8.41;100.00;99109.09;4176070;28;20689;-51
2023/04/17 03:48:59;;;;;;;13.38;12.27;;;;;;;8.43;100.00;99106.16;4156391;28;20331;-49
2023/04/17 03:51:02;;;;;;;15.02;13.82;;;;;;;8.45;100.00;99104.03;4151539;28;20220;-49
2023/04/17 03:53:03;;;;;;;15.77;14.60;;;;;;;8.45;100.00;99104.88;4167847;28;20283;-49
2023/04/17 03:55:07;;;;;;;16.27;14.98;;;;;;;8.43;100.00;99106.16;4170229;28;20630;-50
2023/04/17 03:57:09;;;;;;;15.95;13.52;;;;;;;8.43;100.00;99114.34;4169516;28;20744;-51
2023/04/17 03:59:10;;;;;;;14.82;13.63;;;;;;;8.41;100.00;99113.72;4177956;28;20243;-49
2023/04/17 04:01:13;;;;;;;14.60;13.27;;;;;;;8.43;100.00;99114.34;4202594;28;20280;-50
2023/04/17 04:03:15;;;;;;;15.55;14.35;;;;;;;8.43;100.00;99108.88;4171929;28;20208;-49
2023/04/17 04:05:17;;;;;;;14.43;13.32;;;;;;;8.42;100.00;99116.22;4171560;28;20218;-49
2023/04/17 04:07:20;;;;;;;15.43;14.15;;;;;;;8.41;100.00;99113.72;4172539;28;20235;-49
2023/04/17 04:09:22;;;;;;;14.40;13.23;;;;;;;8.42;100.00;99109.94;4172373;28;20251;-51
2023/04/17 04:11:24;;;;;;;14.02;12.73;;;;;;;8.45;100.00;99110.34;4170757;28;20830;-50
2023/04/17 04:13:26;;;;;;;14.90;13.73;;;;;;;8.44;100.00;99113.28;4158436;28;20201;-48
2023/04/17 04:15:27;;;;;;;15.90;14.60;;;;;;;8.46;100.00;99109.28;4153866;28;20213;-49
2023/04/17 04:17:29;;;;;;;16.90;15.70;;;;;;;8.45;100.00;99112.22;4170236;28;20258;-49
2023/04/17 04:19:31;;;;;;;14.27;13.20;;;;;;;8.45;100.00;99109.50;4159395;28;20460;-49
2023/04/17 04:21:33;;;;;;;15.68;14.38;;;;;;;8.45;100.00;99114.94;4153997;28;20211;-50
2023/04/17 04:23:40;;;;;;;15.82;14.52;;;;;;;8.49;100.00;99116.19;4169035;28;20625;-49
2023/04/17 04:25:42;;;;;;;15.63;14.32;;;;;;;8.46;100.00;99113.88;4175505;28;20227;-49
2023/04/17 04:27:48;;;;;;;15.80;14.30;;;;;;;8.47;100.00;99115.53;4151477;28;20232;-49
2023/04/17 04:29:50;;;;;;;15.15;13.88;;;;;;;8.47;100.00;99121.00;4171971;28;20208;-49
2023/04/17 04:31:52;;;;;;;14.93;13.63;;;;;;;8.44;100.00;99114.13;4167652;28;20235;-48
2023/04/17 04:33:56;;;;;;;15.10;13.73;;;;;;;8.43;100.00;99123.34;4168060;28;20209;-50
2023/04/17 04:35:59;;;;;;;15.50;14.10;;;;;;;8.48;100.00;99119.97;4167981;28;20295;-49
2023/04/17 04:38:03;;;;;;;16.38;15.07;;;;;;;8.44;100.00;99118.72;4158104;28;20231;-48
2023/04/17 04:40:15;;;;;;;16.60;15.30;;;;;;;8.39;100.00;99126.72;4157520;28;20212;-49
2023/04/17 04:42:21;;;;;;;16.55;15.18;;;;;;;8.37;100.00;99126.13;4157845;28;20232;-48
2023/04/17 04:44:23;;;;;;;16.92;15.50;;;;;;;8.41;100.00;99121.91;4168257;28;20686;-49
2023/04/17 04:46:25;;;;;;;16.02;14.88;;;;;;;8.38;100.00;99125.06;4171250;28;20265;-50
2023/04/17 04:48:27;;;;;;;16.63;15.30;;;;;;;8.37;100.00;99123.41;4173834;28;20246;-49
2023/04/17 04:50:30;;;;;;;17.23;15.90;;;;;;;8.40;100.00;99121.06;4150921;28;20287;-50
2023/04/17 04:52:31;;;;;;;17.63;15.90;;;;;;;8.41;100.00;99122.72;4156017;28;20244;-48
2023/04/17 04:54:33;;;;;;;16.80;15.50;;;;;;;8.40;100.00;99122.94;4167725;28;20208;-49
2023/04/17 04:56:35;;;;;;;16.75;15.43;;;;;;;8.40;100.00;99123.78;4152352;28;20241;-49
2023/04/17 04:58:39;;;;;;;17.45;16.05;;;;;;;8.43;100.00;99127.97;4175953;28;20706;-49
2023/04/17 05:00:42;;;;;;;17.65;16.13;;;;;;;8.41;100.00;99119.19;4169195;28;20769;-49
2023/04/17 05:02:44;;;;;;;17.05;15.75;;;;;;;8.41;100.00;99121.91;4158223;28;20209;-48
2023/04/17 05:04:46;;;;;;;15.35;14.05;;;;;;;8.42;100.00;99123.59;4157644;28;20227;-50
2023/04/17 05:06:48;;;;;;;17.95;16.55;;;;;;;8.43;100.00;99125.25;4156548;28;20212;-48
2023/04/17 05:08:50;;;;;;;14.60;13.48;;;;;;;8.43;100.00;99127.97;4173453;28;20648;-49
2023/04/17 05:10:52;;;;;;;16.05;14.85;;;;;;;8.43;100.00;99131.50;4173857;28;20678;-49
2023/04/17 05:12:54;;;;;;;18.08;16.67;;;;;;;8.42;100.00;99129.03;4168547;28;20242;-48
2023/04/17 05:14:56;;;;;;;16.15;14.88;;;;;;;8.46;100.00;99131.09;4157750;28;20232;-50
2023/04/17 05:16:57;;;;;;;16.13;14.93;;;;;;;8.44;100.00;99129.63;4167367;28;20204;-49
2023/04/17 05:18:59;;;;;;;17.98;16.50;;;;;;;8.42;100.00;99138.03;4170400;28;21233;-49
2023/04/17 05:21:01;;;;;;;17.85;16.50;;;;;;;8.42;100.00;99131.75;4175450;28;20208;-49
2023/04/17 05:23:03;;;;;;;17.35;15.90;;;;;;;8.42;100.00;99137.22;4174883;28;20335;-49
2023/04/17 05:25:05;;;;;;;17.65;16.25;;;;;;;8.43;100.00;99136.16;4151167;28;20214;-48
2023/04/17 05:27:06;;;;;;;16.83;15.52;;;;;;;8.45;100.00;99134.03;4168809;28;20754;-48
2023/04/17 05:29:08;;;;;;;15.57;14.45;;;;;;;8.44;100.00;99135.09;4168582;28;20670;-48
2023/04/17 05:31:10;;;;;;;15.40;14.13;;;;;;;8.45;100.00;99142.22;4171422;28;20196;-48
2023/04/17 05:33:12;;;;;;;17.13;15.73;;;;;;;8.47;100.00;99140.09;4165232;28;20208;-49
2023/04/17 05:35:14;;;;;;;16.40;14.65;;;;;;;8.51;100.00;99142.19;4185254;28;20310;-50
2023/04/17 05:37:16;;;;;;;16.55;15.20;;;;;;;8.50;100.00;99145.13;4181183;28;20295;-48
2023/04/17 05:39:18;;;;;;;17.77;16.25;;;;;;;8.54;100.00;99139.00;4164835;28;20311;-47
2023/04/17 05:41:19;;;;;;;15.77;14.57;;;;;;;8.51;100.00;99136.72;4170019;28;20211;-48
2023/04/17 05:43:21;;;;;;;14.38;13.25;;;;;;;8.54;100.00;99138.19;4201746;28;20202;-48
2023/04/17 05:45:23;;;;;;;17.00;15.70;;;;;;;8.54;100.00;99141.72;4167294;28;20216;-47
2023/04/17 05:47:26;;;;;;;18.77;17.23;;;;;;;8.59;100.00;99141.91;4164664;28;20234;-48
2023/04/17 05:49:28;;;;;;;18.10;16.67;;;;;;;8.63;100.00;99139.56;4198261;28;20288;-49
2023/04/17 05:51:30;;;;;;;18.50;17.00;;;;;;;8.63;100.00;99139.56;4172189;28;20240;-48
2023/04/17 05:53:32;;;;;;;18.55;16.95;;;;;;;8.62;100.00;99138.72;4158523;28;20620;-49
2023/04/17 05:55:33;;;;;;;19.67;17.80;;;;;;;8.68;100.00;99143.28;4142991;28;20775;-49
2023/04/17 05:57:35;;;;;;;20.90;19.30;;;;;;;8.71;100.00;99150.19;4184672;28;20309;-49
2023/04/17 05:59:37;;;;;;;20.05;18.20;;;;;;;8.77;100.00;99136.50;4173579;28;20678;-49
2023/04/17 06:01:39;;;;;;;19.83;18.10;;;;;;;8.74;100.00;99147.03;4172083;28;20204;-48
2023/04/17 06:03:41;;;;;;;20.60;18.75;;;;;;;8.78;100.00;99142.78;4170272;28;20755;-50
2023/04/17 06:05:45;;;;;;;18.73;17.30;;;;;;;8.82;100.00;99141.28;4190143;28;20612;-50
2023/04/17 06:07:47;;;;;;;17.90;16.50;;;;;;;8.88;100.00;99143.13;4176518;28;20262;-49
2023/04/17 06:09:49;;;;;;;19.48;17.92;;;;;;;8.91;100.00;99148.97;4176385;28;20240;-50
2023/04/17 06:11:51;;;;;;;19.10;17.70;;;;;;;8.95;100.00;99149.34;4172082;28;20681;-49
2023/04/17 06:13:52;;;;;;;20.67;18.88;;;;;;;8.93;100.00;99140.53;4155664;28;20205;-49
2023/04/17 06:15:54;;;;;;;17.83;16.38;;;;;;;9.01;100.00;99148.47;4201066;28;20230;-48
2023/04/17 06:17:56;;;;;;;17.48;16.10;;;;;;;9.03;100.00;99152.59;4165956;28;20772;-48
2023/04/17 06:19:58;;;;;;;22.05;20.13;;;;;;;9.10;100.00;99153.41;4169849;28;20212;-50
2023/04/17 06:21:59;;;;;;;17.85;16.48;;;;;;;9.15;100.00;99150.00;4173062;28;20259;-49
2023/04/17 06:24:01;;;;;;;19.23;17.67;;;;;;;9.19;100.00;99156.66;4159434;28;20213;-48
2023/04/17 06:26:03;;;;;;;18.15;16.63;;;;;;;9.27;100.00;99157.22;4171400;28;20291;-49
2023/04/17 06:28:05;;;;;;;20.05;18.45;;;;;;;9.27;100.00;99153.63;4167551;28;20264;-49
2023/04/17 06:30:07;;;;;;;18.60;17.10;;;;;;;9.27;100.00;99153.63;4172490;28;20295;-49
2023/04/17 06:32:09;;;;;;;20.08;18.17;;;;;;;9.32;100.00;99156.53;4154809;28;20205;-49
2023/04/17 06:34:17;;;;;;;20.75;18.85;;;;;;;9.34;100.00;99154.44;4171162;28;20216;-48
2023/04/17 06:36:22;;;;;;;19.52;17.92;;;;;;;9.42;100.00;99157.66;4175172;28;20203;-49
2023/04/17 06:38:23;;;;;;;18.00;16.60;;;;;;;9.52;100.00;99159.88;4179815;28;20270;-49
2023/04/17 06:40:25;;;;;;;20.25;18.35;;;;;;;9.63;100.00;99153.66;4178770;28;20203;-49
2023/04/17 06:42:28;;;;;;;19.52;18.02;;;;;;;9.76;100.00;99154.31;4162712;28;20220;-50
2023/04/17 06:44:29;;;;;;;18.95;17.40;;;;;;;9.74;100.00;99150.16;4171540;28;20212;-48
2023/04/17 06:46:32;;;;;;;19.33;17.73;;;;;;;9.74;100.00;99158.38;4170183;28;20288;-48
2023/04/17 06:48:34;;;;;;;19.02;17.52;;;;;;;9.74;100.00;99163.84;4187317;28;20278;-50
2023/04/17 06:50:36;;;;;;;20.65;18.65;;;;;;;9.63;100.00;99165.41;4173095;28;20201;-50
2023/04/17 06:52:38;;;;;;;20.77;19.05;;;;;;;9.64;100.00;99161.63;4205106;28;20246;-48
2023/04/17 06:54:43;;;;;;;18.55;17.05;;;;;;;9.69;100.00;99164.50;4177201;28;20505;-48
2023/04/17 06:56:45;;;;;;;18.23;16.58;;;;;;;9.64;100.00;99164.38;4170333;28;20259;-49
2023/04/17 06:58:47;;;;;;;18.23;16.90;;;;;;;9.78;100.00;99165.88;4170717;28;20255;-48
2023/04/17 07:00:49;;;;;;;19.70;18.00;;;;;;;9.84;100.00;99166.84;4157451;28;20202;-48
2023/04/17 07:02:51;;;;;;;20.48;18.88;;;;;;;9.82;100.00;99168.97;4171965;28;20726;-48
2023/04/17 07:04:54;;;;;;;20.27;18.60;;;;;;;9.90;100.00;99168.66;4165041;28;20228;-48
2023/04/17 07:06:56;;;;;;;19.73;18.10;;;;;;;9.64;100.00;99166.25;4176927;28;20235;-48
2023/04/17 07:09:00;;;;;;;20.58;18.98;;;;;;;9.61;100.00;99178.47;4171901;28;20239;-48
2023/04/17 07:11:05;;;;;;;19.90;18.00;;;;;;;9.60;100.00;99173.22;4161647;28;20275;-48
2023/04/17 07:13:07;;;;;;;20.30;18.60;;;;;;;9.71;100.00;99170.59;4200689;28;20198;-49
2023/04/17 07:15:09;;;;;;;18.33;17.00;;;;;;;9.69;100.00;99174.59;4173712;28;20261;-49
2023/04/17 07:17:15;;;;;;;18.00;16.60;;;;;;;9.62;100.00;99174.66;4169716;28;20209;-49
2023/04/17 07:19:17;;;;;;;20.63;19.02;;;;;;;9.59;100.00;99182.50;4178255;28;20207;-48
2023/04/17 07:21:27;;;;;;;20.48;18.85;;;;;;;9.58;100.00;99178.09;4199611;28;20198;-48
2023/04/17 07:23:29;;;;;;;19.70;18.08;;;;;;;9.55;100.00;99181.28;4179054;28;20588;-48
2023/04/17 07:25:31;;;;;;;20.80;18.42;;;;;;;9.49;100.00;99185.75;4156950;28;20296;-49
2023/04/17 07:27:33;;;;;;;20.95;18.83;;;;;;;9.55;100.00;99186.75;4154920;28;20650;-48
2023/04/17 07:29:35;;;;;;;20.75;18.85;;;;;;;9.66;100.00;99186.81;4154732;28;20283;-49
2023/04/17 07:31:37;;;;;;;20.35;18.55;;;;;;;9.72;100.00;99191.38;4173177;28;20236;-48
2023/04/17 07:33:39;;;;;;;20.17;18.35;;;;;;;9.79;100.00;99181.22;4200752;28;20203;-49
2023/04/17 07:35:42;;;;;;;20.00;18.40;;;;;;;9.83;100.00;99192.50;4185145;28;20203;-48
2023/04/17 07:37:44;;;;;;;20.88;19.08;;;;;;;9.99;100.00;99191.88;4172537;28;20741;-50
2023/04/17 07:39:48;;;;;;;19.80;18.30;;;;;;;10.07;100.00;99194.34;4188411;28;20242;-50
2023/04/17 07:41:50;;;;;;;21.08;19.23;;;;;;;10.15;100.00;99191.31;4169321;28;20212;-49
2023/04/17 07:43:52;;;;;;;19.58;18.00;;;;;;;10.17;100.00;99190.00;4167148;28;20306;-49
2023/04/17 07:45:54;;;;;;;21.70;20.00;;;;;;;10.29;100.00;99190.88;4172866;28;20733;-50
2023/04/17 07:47:56;;;;;;;19.65;17.75;;;;;;;10.34;100.00;99196.47;4201986;28;20222;-49
2023/04/17 07:49:58;;;;;;;22.70;20.40;;;;;;;10.26;100.00;99194.06;4171843;28;20223;-49
2023/04/17 07:52:00;;;;;;;20.70;19.10;;;;;;;10.44;100.00;99204.13;4168693;28;20654;-48
2023/04/17 07:54:02;;;;;;;21.20;19.25;;;;;;;10.23;100.00;99199.19;4168519;28;20204;-49
2023/04/17 07:56:05;;;;;;;19.10;17.60;;;;;;;10.39;100.00;99199.38;4175413;28;20628;-49
2023/04/17 07:58:10;;;;;;;19.63;18.20;;;;;;;10.42;100.00;99203.53;4169291;28;20223;-51
2023/04/17 08:00:13;;;;;;;18.92;17.48;;;;;;;10.42;100.00;99206.28;4176202;28;20689;-49
2023/04/17 08:02:15;;;;;;;19.98;18.45;;;;;;;10.38;100.00;99202.31;4168996;28;20199;-48
2023/04/17 08:04:20;;;;;;;19.88;18.33;;;;;;;10.33;100.00;99210.38;4155315;28;20300;-48
2023/04/17 08:06:22;;;;;;;21.27;19.40;;;;;;;10.21;100.00;99202.13;4159170;28;20201;-49
2023/04/17 08:08:24;;;;;;;21.02;18.60;;;;;;;10.16;100.00;99204.72;4167368;28;20266;-49
2023/04/17 08:10:27;;;;;;;20.40;18.70;;;;;;;10.10;100.00;99215.75;4173474;28;20212;-49
2023/04/17 08:12:29;;;;;;;21.08;19.27;;;;;;;10.00;100.00;99208.06;4170868;28;20290;-49
2023/04/17 08:14:31;;;;;;;20.77;18.88;;;;;;;10.12;100.00;99209.00;4169306;28;20305;-49
2023/04/17 08:16:33;;;;;;;20.42;18.48;;;;;;;10.45;100.00;99214.00;4172807;28;20236;-49
2023/04/17 08:18:36;;;;;;;20.23;18.52;;;;;;;10.74;100.00;99213.16;4172845;28;20224;-49
2023/04/17 08:20:38;;;;;;;22.35;20.65;;;;;;;10.73;100.00;99212.31;4167329;28;20203;-49
2023/04/17 08:22:42;;;;;;;20.27;18.25;;;;;;;10.82;100.00;99212.81;4171773;28;20200;-49
2023/04/17 08:24:43;;;;;;;18.77;17.17;;;;;;;10.83;100.00;99213.41;4167212;28;20231;-49
2023/04/17 08:26:46;;;;;;;20.23;18.63;;;;;;;11.05;100.00;99210.97;4171304;28;20208;-49
2023/04/17 08:28:48;;;;;;;20.15;18.55;;;;;;;10.88;100.00;99216.28;4168139;28;20228;-49
2023/04/17 08:30:57;;;;;;;18.88;17.27;;;;;;;10.77;100.00;99215.44;4191876;28;20285;-49
2023/04/17 08:32:59;;;;;;;21.27;19.55;;;;;;;10.75;100.00;99212.09;4190296;28;20202;-51
2023/04/17 08:35:01;;;;;;;19.52;17.92;;;;;;;10.72;100.00;99209.81;4172983;28;20219;-49
2023/04/17 08:37:02;;;;;;;18.65;17.25;;;;;;;10.50;100.00;99214.16;4191298;28;20211;-50
2023/04/17 08:39:04;;;;;;;17.08;15.68;;;;;;;10.39;100.00;99209.47;4180302;28;20802;-49
2023/04/17 08:41:09;;;;;;;17.35;16.00;;;;;;;10.47;100.00;99214.63;4161231;28;20625;-49
2023/04/17 08:43:15;;;;;;;16.48;15.05;;;;;;;10.44;100.00;99217.81;4164758;28;20215;-49
2023/04/17 08:45:17;;;;;;;16.02;14.82;;;;;;;10.46;100.00;99216.53;4166012;28;20208;-49
2023/04/17 08:47:19;;;;;;;16.65;15.35;;;;;;;10.32;100.00;99220.50;4179432;28;20324;-49
2023/04/17 08:49:20;;;;;;;14.60;13.40;;;;;;;10.31;100.00;99223.47;4166814;28;20232;-51
2023/04/17 08:51:26;;;;;;;15.38;14.18;;;;;;;10.45;100.00;99220.31;4153471;28;20622;-49
2023/04/17 08:53:28;;;;;;;14.68;13.55;;;;;;;10.29;100.00;99215.47;4163285;28;20271;-51
2023/04/17 08:55:31;;;;;;;15.60;14.40;;;;;;;10.28;100.00;99219.28;4151282;28;20240;-49
2023/04/17 08:57:33;;;;;;;14.40;13.20;;;;;;;10.53;100.00;99216.41;4167212;28;20235;-50
2023/04/17 08:59:35;;;;;;;14.77;13.57;;;;;;;10.60;100.00;99219.88;4171327;28;20219;-49
2023/04/17 09:01:36;;;;;;;16.02;14.63;;;;;;;10.69;100.00;99222.06;4165072;28;20713;-49
2023/04/17 09:03:40;;;;;;;14.20;13.10;;;;;;;10.67;100.00;99220.66;4149419;28;20263;-49
2023/04/17 09:05:44;;;;;;;15.52;14.10;;;;;;;10.84;100.00;99219.75;4180793;28;20212;-49
2023/04/17 09:08:24;;;;;;;13.93;12.52;;;;;;;10.78;100.00;99216.03;4168986;28;20274;-49
2023/04/17 09:10:39;;;;;;;13.43;12.43;;;;;;;10.66;100.00;99227.16;4170315;28;20601;-49
2023/04/17 09:12:57;;;;;;;12.20;11.15;;;;;;;10.66;100.00;99227.16;4162687;28;20213;-48
2023/04/17 09:15:22;;;;;;;11.68;10.70;;;;;;;10.76;100.00;99228.25;4163255;28;20235;-48
2023/04/17 09:17:33;;;;;;;10.82;9.93;;;;;;;10.74;100.00;99226.84;4168642;28;20646;-50
2023/04/17 09:19:35;;;;;;;9.15;8.38;;;;;;;10.54;100.00;99223.59;4171968;28;20287;-48
2023/04/17 09:21:37;;;;;;;10.10;9.30;;;;;;;10.57;100.00;99229.41;4161060;28;20212;-48
2023/04/17 09:23:47;;;;;;;8.73;8.13;;;;;;;10.48;100.00;99229.97;4146184;28;20213;-49